Time;durP1;ratioP1;P1;durP2;ratioP2;P2;SDS_P1;SDS_P2;PMS_P1;PMS_P2;Temp;Humidity;BMP_temperature;BMP_pressure;BME280_temperature;BME280_humidity;BME280_pressure;Samples;Min_cycle;Max_cycle;Signal;HPM_P1;HPM_P2
2022/10/29 00:00:54;;;;;;;8.70;5.60;;;;;;;14.23;100.00;99316.50;4295243;33;20066;-73
2022/10/29 00:03:35;;;;;;;22.55;5.87;;;;;;;14.09;100.00;99311.59;4309739;33;20044;-73
2022/10/29 00:06:05;;;;;;;10.55;5.75;;;;;;;14.27;100.00;99309.47;4319158;33;20060;-73
2022/10/29 00:08:34;;;;;;;15.70;6.22;;;;;;;13.84;100.00;99279.03;4311300;33;20045;-73
2022/10/29 00:11:10;;;;;;;13.18;6.05;;;;;;;13.72;100.00;99281.94;4311822;33;20079;-75
2022/10/29 00:13:37;;;;;;;8.70;5.43;;;;;;;13.91;100.00;99320.19;4337237;33;20040;-74
2022/10/29 00:16:08;;;;;;;9.98;5.47;;;;;;;13.96;100.00;99321.03;4341459;33;20343;-74
2022/10/29 00:18:35;;;;;;;8.73;4.47;;;;;;;13.99;100.00;99314.25;4334528;33;20040;-74
2022/10/29 00:21:04;;;;;;;9.77;5.78;;;;;;;13.52;100.00;99274.56;4324738;33;20052;-73
2022/10/29 00:23:31;;;;;;;11.60;5.78;;;;;;;14.13;100.00;99318.09;4326461;33;20078;-74
2022/10/29 00:25:58;;;;;;;8.73;5.80;;;;;;;13.66;100.00;99285.69;4327822;33;20069;-74
2022/10/29 00:28:26;;;;;;;16.98;6.00;;;;;;;13.41;100.00;99260.16;4307734;33;20221;-74
2022/10/29 00:30:52;;;;;;;11.60;6.22;;;;;;;13.74;100.00;99314.97;4308894;33;20045;-73
2022/10/29 00:33:19;;;;;;;8.60;6.03;;;;;;;13.81;100.00;99275.75;4308214;33;20032;-73
2022/10/29 00:35:57;;;;;;;14.57;5.43;;;;;;;13.75;100.00;99317.41;4308746;33;20560;-73
2022/10/29 00:38:23;;;;;;;13.18;5.75;;;;;;;13.66;100.00;99283.81;4308590;33;20171;-73
2022/10/29 00:40:50;;;;;;;12.43;5.60;;;;;;;13.83;100.00;99313.38;4309709;33;20036;-73
2022/10/29 00:43:19;;;;;;;10.00;5.53;;;;;;;13.79;100.00;99269.78;4307199;33;20028;-74
2022/10/29 00:45:53;;;;;;;10.20;5.50;;;;;;;13.92;100.00;99309.09;4308656;33;20319;-73
2022/10/29 00:48:22;;;;;;;11.15;5.70;;;;;;;13.94;100.00;99306.13;4309416;33;20041;-73
2022/10/29 00:50:48;;;;;;;10.20;5.40;;;;;;;13.85;100.00;99302.28;4309663;33;20062;-75
2022/10/29 00:53:20;;;;;;;8.85;5.70;;;;;;;13.70;100.00;99336.31;4307166;33;20078;-73
2022/10/29 00:55:53;;;;;;;12.90;5.85;;;;;;;13.63;100.00;99301.38;4309182;33;20066;-74
2022/10/29 00:58:20;;;;;;;11.02;5.47;;;;;;;13.76;100.00;99329.84;4308519;33;20094;-74
2022/10/29 01:00:47;;;;;;;9.75;5.47;;;;;;;13.64;100.00;99318.41;4325780;33;20044;-74
2022/10/29 01:03:13;;;;;;;8.48;5.55;;;;;;;13.67;100.00;99317.91;4324091;33;20035;-74
2022/10/29 01:05:39;;;;;;;11.52;5.70;;;;;;;13.88;100.00;99301.75;4307634;33;20056;-74
2022/10/29 01:08:06;;;;;;;7.15;5.35;;;;;;;13.78;100.00;99305.25;4309213;33;20033;-74
2022/10/29 01:11:06;;;;;;;11.23;6.15;;;;;;;13.46;100.00;99281.00;4268073;33;20077;-74
2022/10/29 01:13:51;;;;;;;11.00;5.05;;;;;;;13.57;100.00;99269.16;4265298;33;20053;-74
2022/10/29 01:16:23;;;;;;;11.98;5.28;;;;;;;13.71;100.00;99297.38;4264912;33;20037;-74
2022/10/29 01:19:08;;;;;;;9.02;5.10;;;;;;;13.81;100.00;99291.97;4265999;33;20079;-74
2022/10/29 01:21:41;;;;;;;15.63;5.43;;;;;;;13.53;100.00;99300.50;4267331;33;20051;-74
2022/10/29 01:24:44;;;;;;;10.48;5.68;;;;;;;13.59;100.00;99294.88;4264114;33;20045;-74
2022/10/29 01:27:45;;;;;;;11.25;5.53;;;;;;;13.90;100.00;99299.63;4266468;33;20103;-74
2022/10/29 01:30:14;;;;;;;12.25;5.60;;;;;;;13.89;100.00;99292.56;4265948;33;20050;-74
2022/10/29 01:32:43;;;;;;;12.35;5.57;;;;;;;13.70;100.00;99295.72;4266087;33;20052;-74
2022/10/29 01:35:50;;;;;;;11.20;5.35;;;;;;;13.69;100.00;99256.25;4258486;33;20125;-74
2022/10/29 01:38:29;;;;;;;8.43;5.57;;;;;;;13.74;100.00;99288.72;4243898;33;20190;-74
2022/10/29 01:41:07;;;;;;;9.10;4.68;;;;;;;13.79;100.00;99266.28;4259754;33;20077;-74
2022/10/29 01:43:54;;;;;;;11.07;5.65;;;;;;;13.63;100.00;99277.03;4294013;33;20171;-75
2022/10/29 01:46:32;;;;;;;11.68;5.82;;;;;;;13.72;100.00;99282.78;4267126;33;20446;-74
2022/10/29 01:49:03;;;;;;;9.60;5.55;;;;;;;13.76;100.00;99262.19;4250636;33;20071;-74
2022/10/29 01:51:33;;;;;;;12.30;4.87;;;;;;;13.64;100.00;99280.53;4252120;33;20166;-73
2022/10/29 01:54:04;;;;;;;8.43;4.95;;;;;;;13.18;100.00;99239.72;4249561;33;20042;-73
2022/10/29 01:56:31;;;;;;;10.95;5.75;;;;;;;13.37;100.00;99238.25;4251738;33;20053;-74
2022/10/29 01:58:59;;;;;;;13.25;5.50;;;;;;;13.85;100.00;99275.22;4252820;33;20153;-73
2022/10/29 02:01:25;;;;;;;8.65;5.00;;;;;;;13.85;100.00;99270.63;4260716;33;20049;-74
2022/10/29 02:03:52;;;;;;;9.05;5.60;;;;;;;13.55;100.00;99276.75;4266025;33;20034;-73
2022/10/29 02:06:40;;;;;;;6.97;5.12;;;;;;;13.40;100.00;99270.16;4268458;33;20042;-74
2022/10/29 02:09:20;;;;;;;12.32;5.40;;;;;;;13.61;100.00;99259.47;4274241;33;20048;-74
2022/10/29 02:12:11;;;;;;;10.45;5.12;;;;;;;13.67;100.00;99284.63;4282129;33;20051;-74
2022/10/29 02:14:46;;;;;;;10.13;5.80;;;;;;;13.51;100.00;99229.63;4282220;33;20418;-74
2022/10/29 02:17:12;;;;;;;10.55;5.50;;;;;;;13.46;100.00;99256.66;4280799;33;20037;-74
2022/10/29 02:19:39;;;;;;;8.95;5.25;;;;;;;13.51;100.00;99205.28;4292115;33;20080;-75
2022/10/29 02:22:05;;;;;;;13.77;6.15;;;;;;;13.47;100.00;99198.81;4310803;33;20039;-76
2022/10/29 02:24:31;;;;;;;11.02;5.07;;;;;;;13.73;100.00;99251.09;4324165;33;20045;-76
2022/10/29 02:26:58;;;;;;;9.43;5.90;;;;;;;13.24;100.00;99206.22;4320783;33;20164;-75
2022/10/29 02:29:24;;;;;;;12.73;5.43;;;;;;;13.84;100.00;99241.13;4314012;33;20040;-76
2022/10/29 02:31:50;;;;;;;9.13;5.15;;;;;;;13.29;100.00;99198.16;4341126;33;20103;-76
2022/10/29 02:34:17;;;;;;;15.52;4.97;;;;;;;13.78;100.00;99232.97;4341065;33;20461;-76
2022/10/29 02:36:43;;;;;;;10.27;6.30;;;;;;;13.75;100.00;99228.12;4340698;33;20426;-76
2022/10/29 02:39:10;;;;;;;9.02;6.00;;;;;;;13.40;100.00;99194.44;4336512;33;20044;-77
2022/10/29 02:41:36;;;;;;;9.98;5.25;;;;;;;13.22;100.00;99230.81;4335099;33;20090;-76
2022/10/29 02:44:02;;;;;;;7.87;4.50;;;;;;;13.57;100.00;99247.53;4345844;32;20077;-76
2022/10/29 02:46:29;;;;;;;8.52;5.00;;;;;;;13.43;100.00;99242.59;4340730;32;20412;-75
2022/10/29 02:48:56;;;;;;;19.37;5.80;;;;;;;13.53;100.00;99235.59;4342038;33;20188;-76
2022/10/29 02:51:22;;;;;;;9.65;5.28;;;;;;;13.40;100.00;99243.12;4339389;33;20376;-76
2022/10/29 02:53:48;;;;;;;8.95;5.32;;;;;;;13.38;100.00;99229.03;4338963;33;20047;-76
2022/10/29 02:56:15;;;;;;;12.13;5.78;;;;;;;13.13;100.00;99204.53;4339339;33;20048;-75
2022/10/29 02:58:41;;;;;;;15.73;6.43;;;;;;;13.54;100.00;99232.63;4339897;33;20421;-75
2022/10/29 03:01:07;;;;;;;8.25;5.15;;;;;;;13.38;100.00;99239.84;4298794;33;20045;-74
2022/10/29 03:03:34;;;;;;;10.23;4.80;;;;;;;13.47;100.00;99237.47;4295956;33;20066;-74
2022/10/29 03:06:00;;;;;;;8.20;5.15;;;;;;;13.30;100.00;99248.44;4294375;33;20117;-74
2022/10/29 03:08:27;;;;;;;8.55;4.82;;;;;;;12.99;100.00;99213.12;4296515;33;20069;-73
2022/10/29 03:10:59;;;;;;;4.70;4.10;;;;;;;13.30;100.00;99194.34;4296673;33;20045;-74
2022/10/29 03:13:26;;;;;;;9.57;5.45;;;;;;;13.16;100.00;99191.34;4303186;33;20028;-73
2022/10/29 03:15:52;;;;;;;10.65;6.40;;;;;;;13.26;100.00;99215.72;4309200;33;20343;-73
2022/10/29 03:18:18;;;;;;;7.53;4.85;;;;;;;13.34;100.00;99252.28;4311058;33;20029;-74
2022/10/29 03:20:46;;;;;;;7.97;5.95;;;;;;;13.21;100.00;99260.81;4298824;33;20033;-74
2022/10/29 03:23:12;;;;;;;7.32;4.80;;;;;;;13.30;100.00;99231.41;4296370;33;20049;-74
2022/10/29 03:25:38;;;;;;;13.23;4.97;;;;;;;13.18;100.00;99212.66;4299155;33;20152;-74
2022/10/29 03:28:11;;;;;;;9.80;5.03;;;;;;;13.52;100.00;99250.22;4310261;33;20049;-75
2022/10/29 03:30:37;;;;;;;6.05;4.37;;;;;;;13.26;100.00;99206.78;4310623;33;20048;-74
2022/10/29 03:33:04;;;;;;;17.62;4.85;;;;;;;13.23;100.00;99245.16;4323381;33;20029;-74
2022/10/29 03:35:30;;;;;;;14.48;4.70;;;;;;;13.43;100.00;99245.31;4330929;33;20411;-74
2022/10/29 03:37:56;;;;;;;6.72;4.37;;;;;;;13.06;100.00;99189.38;4323178;33;20032;-73
2022/10/29 03:40:22;;;;;;;10.18;4.78;;;;;;;13.35;100.00;99232.25;4317875;33;20040;-74
2022/10/29 03:42:49;;;;;;;9.77;5.30;;;;;;;13.38;100.00;99234.44;4313915;33;20037;-74
2022/10/29 03:45:15;;;;;;;8.70;5.10;;;;;;;13.21;100.00;99144.56;4321477;33;20036;-73
2022/10/29 03:47:42;;;;;;;8.75;4.87;;;;;;;13.43;100.00;99188.50;4326171;33;20419;-74
2022/10/29 03:50:09;;;;;;;11.07;5.12;;;;;;;13.60;100.00;99209.13;4336593;33;20032;-73
2022/10/29 03:52:35;;;;;;;9.13;5.78;;;;;;;13.77;100.00;99208.91;4336408;33;20432;-73
2022/10/29 03:55:02;;;;;;;10.38;4.55;;;;;;;13.55;100.00;99201.78;4327007;33;20358;-73
2022/10/29 03:57:29;;;;;;;6.43;4.57;;;;;;;13.37;100.00;99194.97;4324798;33;20041;-73
2022/10/29 03:59:55;;;;;;;13.20;5.10;;;;;;;13.62;100.00;99190.72;4325214;33;20062;-74
2022/10/29 04:02:28;;;;;;;7.07;5.05;;;;;;;13.61;100.00;99205.34;4339592;33;20099;-73
2022/10/29 04:04:55;;;;;;;6.85;4.85;;;;;;;13.47;100.00;99221.25;4328803;33;20066;-74
2022/10/29 04:07:21;;;;;;;16.15;4.60;;;;;;;13.49;100.00;99207.47;4320468;33;20110;-74
2022/10/29 04:09:47;;;;;;;11.82;5.37;;;;;;;13.32;100.00;99186.78;4311300;33;20097;-73
2022/10/29 04:12:14;;;;;;;12.50;4.90;;;;;;;13.29;100.00;99171.13;4326570;33;20070;-73
2022/10/29 04:14:41;;;;;;;9.05;5.05;;;;;;;13.38;100.00;99172.25;4326157;33;20044;-73
2022/10/29 04:17:10;;;;;;;8.75;4.85;;;;;;;13.33;100.00;99198.47;4326903;33;20082;-72
2022/10/29 04:19:38;;;;;;;10.48;5.45;;;;;;;13.36;100.00;99160.06;4315235;33;20062;-73
2022/10/29 04:22:04;;;;;;;11.12;5.00;;;;;;;13.37;100.00;99167.09;4310760;33;20032;-74
2022/10/29 04:24:30;;;;;;;12.88;5.60;;;;;;;13.43;100.00;99177.69;4311903;33;20405;-73
2022/10/29 04:26:57;;;;;;;12.13;5.20;;;;;;;13.31;100.00;99168.16;4311566;33;20036;-74
2022/10/29 04:29:23;;;;;;;7.97;4.82;;;;;;;13.53;100.00;99203.97;4310875;33;20032;-74
2022/10/29 04:31:49;;;;;;;10.68;5.37;;;;;;;13.18;100.00;99142.38;4323588;33;20052;-74
2022/10/29 04:34:16;;;;;;;13.00;4.87;;;;;;;13.53;100.00;99213.94;4323728;33;20078;-74
2022/10/29 04:36:42;;;;;;;6.40;4.47;;;;;;;13.29;100.00;99225.19;4324280;33;20091;-74
2022/10/29 04:39:08;;;;;;;17.20;5.47;;;;;;;12.96;100.00;99178.50;4324258;33;20163;-74
2022/10/29 04:41:35;;;;;;;6.25;4.65;;;;;;;13.42;100.00;99170.66;4324200;33;20043;-74
2022/10/29 04:44:01;;;;;;;12.05;4.87;;;;;;;13.42;100.00;99192.28;4321641;33;20080;-74
2022/10/29 04:46:27;;;;;;;16.67;5.07;;;;;;;13.18;100.00;99218.06;4324425;33;20307;-74
2022/10/29 04:48:54;;;;;;;10.98;4.70;;;;;;;13.31;100.00;99225.75;4324201;33;20036;-75
2022/10/29 04:51:23;;;;;;;8.95;5.10;;;;;;;12.95;100.00;99197.69;4324313;33;20058;-75
2022/10/29 04:53:49;;;;;;;9.65;4.72;;;;;;;13.25;100.00;99229.50;4324270;33;20363;-75
2022/10/29 04:56:17;;;;;;;7.40;4.70;;;;;;;13.32;100.00;99229.25;4323068;33;20103;-74
2022/10/29 04:58:43;;;;;;;15.05;5.37;;;;;;;13.42;100.00;99223.94;4323389;33;20397;-74
2022/10/29 05:01:10;;;;;;;10.90;4.93;;;;;;;13.46;100.00;99213.41;4324946;33;20175;-75
2022/10/29 05:03:36;;;;;;;9.27;4.53;;;;;;;13.27;100.00;99197.59;4325347;33;20048;-75
2022/10/29 05:06:04;;;;;;;8.65;4.80;;;;;;;13.18;100.00;99218.91;4324239;33;20041;-75
2022/10/29 05:08:31;;;;;;;15.55;5.65;;;;;;;13.63;100.00;99236.44;4324651;33;20070;-74
2022/10/29 05:11:04;;;;;;;9.55;5.15;;;;;;;13.58;100.00;99259.97;4326032;33;20094;-75
2022/10/29 05:13:32;;;;;;;7.43;5.28;;;;;;;13.47;100.00;99225.84;4325832;33;20036;-74
2022/10/29 05:15:58;;;;;;;11.20;4.68;;;;;;;13.79;100.00;99250.03;4337781;33;20044;-74
2022/10/29 05:18:25;;;;;;;15.02;5.35;;;;;;;13.11;100.00;99206.69;4338469;33;20065;-75
2022/10/29 05:20:53;;;;;;;9.55;5.12;;;;;;;13.56;100.00;99254.00;4294561;33;20049;-75
2022/10/29 05:23:20;;;;;;;10.43;5.32;;;;;;;13.50;100.00;99220.72;4295047;33;20114;-74
2022/10/29 05:25:50;;;;;;;9.45;5.15;;;;;;;13.43;100.00;99229.06;4286417;33;20041;-74
2022/10/29 05:28:19;;;;;;;10.13;4.80;;;;;;;13.37;100.00;99208.50;4276907;33;20029;-74
2022/10/29 05:30:47;;;;;;;14.10;4.80;;;;;;;13.56;100.00;99224.25;4290443;33;20202;-74
2022/10/29 05:33:15;;;;;;;11.60;5.03;;;;;;;13.71;100.00;99256.78;4293995;33;20061;-76
2022/10/29 05:35:42;;;;;;;12.13;4.93;;;;;;;13.54;100.00;99221.00;4297604;33;20048;-75
2022/10/29 05:38:10;;;;;;;9.43;5.47;;;;;;;13.49;100.00;99261.56;4295900;33;20040;-74
2022/10/29 05:40:37;;;;;;;16.23;6.05;;;;;;;13.30;100.00;99199.75;4297143;33;20074;-77
2022/10/29 05:43:03;;;;;;;7.47;5.10;;;;;;;13.60;100.00;99250.50;4296716;33;20052;-75
2022/10/29 05:45:30;;;;;;;8.35;4.45;;;;;;;13.64;100.00;99242.66;4293931;33;20438;-75
2022/10/29 05:47:58;;;;;;;9.07;5.47;;;;;;;13.16;100.00;99241.88;4294381;33;20037;-78
2022/10/29 05:50:25;;;;;;;14.68;6.35;;;;;;;13.35;100.00;99234.97;4296064;33;20062;-76
2022/10/29 05:53:00;;;;;;;6.68;4.72;;;;;;;13.19;100.00;99211.59;4309547;33;20090;-78
2022/10/29 05:55:28;;;;;;;7.45;5.03;;;;;;;13.83;100.00;99253.03;4307745;33;20044;-81
2022/10/29 05:57:56;;;;;;;12.90;5.47;;;;;;;13.76;100.00;99247.88;4298897;33;20048;-76
2022/10/29 06:00:24;;;;;;;14.05;5.32;;;;;;;13.84;100.00;99254.66;4309493;33;20044;-76
2022/10/29 06:02:51;;;;;;;10.73;5.12;;;;;;;13.40;100.00;99221.50;4311456;33;20070;-74
2022/10/29 06:05:24;;;;;;;13.52;6.28;;;;;;;13.77;100.00;99253.03;4311123;33;20045;-75
2022/10/29 06:07:55;;;;;;;14.77;5.62;;;;;;;13.36;100.00;99236.59;4311697;33;20041;-77
2022/10/29 06:10:23;;;;;;;6.68;5.05;;;;;;;13.54;100.00;99256.97;4307888;33;20088;-75
2022/10/29 06:12:50;;;;;;;10.25;6.35;;;;;;;13.46;100.00;99249.34;4310272;33;20122;-74
2022/10/29 06:15:17;;;;;;;11.90;5.22;;;;;;;13.52;100.00;99261.84;4305841;33;20059;-74
2022/10/29 06:17:44;;;;;;;11.45;5.18;;;;;;;13.54;100.00;99270.50;4311495;33;20032;-74
2022/10/29 06:20:13;;;;;;;13.13;5.35;;;;;;;13.36;100.00;99217.69;4305397;33;20179;-74
2022/10/29 06:22:40;;;;;;;10.10;5.65;;;;;;;13.67;100.00;99282.72;4306707;33;20041;-76
2022/10/29 06:25:07;;;;;;;19.08;6.12;;;;;;;13.61;100.00;99275.69;4310587;33;20037;-76
2022/10/29 06:27:33;;;;;;;9.40;6.15;;;;;;;13.57;100.00;99283.50;4311544;33;20044;-76
2022/10/29 06:30:00;;;;;;;12.27;5.45;;;;;;;13.21;100.00;99198.63;4310391;33;20040;-76
2022/10/29 06:32:26;;;;;;;9.25;5.03;;;;;;;13.66;100.00;99294.66;4308797;33;20058;-74
2022/10/29 06:34:53;;;;;;;11.05;5.62;;;;;;;13.65;100.00;99287.59;4310732;33;20715;-75
2022/10/29 06:37:19;;;;;;;20.20;5.80;;;;;;;13.74;100.00;99299.53;4311088;33;20062;-75
2022/10/29 06:39:45;;;;;;;14.45;6.03;;;;;;;13.52;100.00;99288.09;4311032;33;20036;-75
2022/10/29 06:42:12;;;;;;;10.88;5.50;;;;;;;13.62;100.00;99266.47;4295190;33;20228;-74
2022/10/29 06:44:38;;;;;;;13.25;5.85;;;;;;;13.88;100.00;99291.75;4292852;33;20059;-75
2022/10/29 06:47:04;;;;;;;5.70;4.45;;;;;;;13.88;100.00;99288.22;4295343;33;20045;-76
2022/10/29 06:49:31;;;;;;;12.02;6.22;;;;;;;13.69;100.00;99299.53;4296517;33;20067;-76
2022/10/29 06:51:57;;;;;;;10.82;6.47;;;;;;;13.67;100.00;99257.56;4294612;33;20030;-76
2022/10/29 06:54:24;;;;;;;13.05;6.20;;;;;;;13.85;100.00;99264.38;4295544;33;20045;-75
2022/10/29 06:56:50;;;;;;;12.07;6.22;;;;;;;13.88;100.00;99256.56;4306228;33;20171;-74
2022/10/29 06:59:16;;;;;;;9.68;5.37;;;;;;;13.86;100.00;99303.94;4307513;33;20052;-74
2022/10/29 07:01:43;;;;;;;13.62;5.87;;;;;;;14.08;100.00;99296.41;4300944;33;20037;-75
2022/10/29 07:04:09;;;;;;;12.37;6.03;;;;;;;14.05;100.00;99306.97;4301460;33;20044;-75
2022/10/29 07:06:35;;;;;;;11.50;5.53;;;;;;;13.51;100.00;99256.69;4307949;33;20044;-76
2022/10/29 07:09:02;;;;;;;13.88;5.85;;;;;;;13.88;100.00;99280.09;4310496;33;20495;-75
2022/10/29 07:11:28;;;;;;;16.60;6.78;;;;;;;13.94;100.00;99273.62;4310444;33;20111;-75
2022/10/29 07:13:55;;;;;;;14.38;5.85;;;;;;;13.74;100.00;99253.53;4330447;33;20037;-75
2022/10/29 07:16:21;;;;;;;16.35;5.43;;;;;;;14.42;100.00;99301.38;4328720;33;20044;-75
2022/10/29 07:18:47;;;;;;;13.65;6.18;;;;;;;14.38;100.00;99299.50;4325648;33;20201;-75
2022/10/29 07:21:14;;;;;;;13.77;6.07;;;;;;;14.30;100.00;99303.53;4324556;33;20040;-75
2022/10/29 07:23:40;;;;;;;15.57;5.75;;;;;;;14.60;100.00;99308.22;4335453;33;20104;-74
2022/10/29 07:26:06;;;;;;;15.38;6.03;;;;;;;14.35;100.00;99322.50;4314447;33;20045;-74
2022/10/29 07:28:33;;;;;;;7.47;5.05;;;;;;;14.79;100.00;99307.66;4318844;33;20052;-75
2022/10/29 07:31:00;;;;;;;13.10;6.00;;;;;;;14.53;100.00;99307.63;4318592;33;20119;-75
2022/10/29 07:33:29;;;;;;;15.18;6.18;;;;;;;14.70;100.00;99283.81;4317925;33;20068;-75
2022/10/29 07:35:59;;;;;;;19.37;6.05;;;;;;;14.92;100.00;99309.03;4312813;33;20660;-75
2022/10/29 07:38:25;;;;;;;13.32;6.45;;;;;;;15.29;100.00;99321.50;4304524;33;20078;-74
2022/10/29 07:40:52;;;;;;;15.40;5.37;;;;;;;14.98;100.00;99314.19;4310723;33;20175;-75
2022/10/29 07:43:20;;;;;;;8.98;5.40;;;;;;;14.91;100.00;99274.88;4308458;33;20440;-75
2022/10/29 07:45:51;;;;;;;17.37;5.45;;;;;;;15.03;100.00;99272.69;4316940;33;20058;-75
2022/10/29 07:48:19;;;;;;;8.27;6.17;;;;;;;15.18;100.00;99269.97;4323356;33;20579;-75
2022/10/29 07:50:46;;;;;;;19.20;6.10;;;;;;;14.93;100.00;99278.13;4320031;33;20031;-76
2022/10/29 07:53:13;;;;;;;16.45;5.75;;;;;;;15.22;100.00;99281.91;4319434;33;20074;-76
2022/10/29 07:55:39;;;;;;;10.52;5.10;;;;;;;15.55;100.00;99327.66;4319905;33;20151;-76
2022/10/29 07:58:10;;;;;;;16.92;5.22;;;;;;;15.65;100.00;99315.97;4317660;33;20384;-75
2022/10/29 08:00:38;;;;;;;10.65;5.78;;;;;;;15.68;100.00;99269.28;4310115;33;20070;-75
2022/10/29 08:03:05;;;;;;;13.50;5.35;;;;;;;16.26;100.00;99310.31;4312186;33;20052;-76
2022/10/29 08:05:32;;;;;;;13.23;5.20;;;;;;;15.80;100.00;99276.03;4311823;33;20499;-76
2022/10/29 08:07:58;;;;;;;11.05;5.82;;;;;;;16.02;100.00;99303.91;4314429;33;20070;-75
2022/10/29 08:10:25;;;;;;;14.68;5.68;;;;;;;16.33;100.00;99310.81;4319299;33;20037;-74
2022/10/29 08:12:53;;;;;;;21.08;5.97;;;;;;;16.10;100.00;99273.47;4310414;33;20098;-74
2022/10/29 08:15:21;;;;;;;14.35;5.60;;;;;;;15.76;100.00;99276.84;4313383;33;20041;-76
2022/10/29 08:17:48;;;;;;;17.00;5.60;;;;;;;16.00;100.00;99311.53;4317940;33;20049;-76
2022/10/29 08:20:16;;;;;;;14.93;5.32;;;;;;;16.21;100.00;99291.34;4318483;33;20066;-75
2022/10/29 08:22:42;;;;;;;16.73;5.22;;;;;;;16.23;100.00;99305.44;4319452;33;20590;-74
2022/10/29 08:25:16;;;;;;;12.75;5.45;;;;;;;16.20;100.00;99300.56;4321032;33;20147;-75
2022/10/29 08:27:42;;;;;;;11.20;5.90;;;;;;;16.61;100.00;99299.47;4321258;33;20068;-75
2022/10/29 08:30:11;;;;;;;18.52;5.65;;;;;;;16.97;100.00;99291.87;4320987;33;20103;-75
2022/10/29 08:32:45;;;;;;;15.10;6.28;;;;;;;16.87;100.00;99273.75;4318949;33;20036;-74
2022/10/29 08:35:13;;;;;;;14.38;6.47;;;;;;;16.47;100.00;99262.06;4317576;33;20111;-76
2022/10/29 08:37:43;;;;;;;17.00;4.97;;;;;;;16.89;100.00;99271.53;4319227;33;20406;-76
2022/10/29 08:40:31;;;;;;;14.38;5.80;;;;;;;17.05;100.00;99261.34;4322440;33;20096;-74
2022/10/29 08:43:03;;;;;;;15.07;6.20;;;;;;;16.59;100.00;99309.84;4319030;33;20079;-74
2022/10/29 08:45:55;;;;;;;;;;;;;;;16.91;100.00;99287.56;4323026;33;20537;-75
2022/10/29 08:48:46;;;;;;;16.33;6.70;;;;;;;17.04;100.00;99308.69;4315855;33;20318;-75
2022/10/29 08:51:19;;;;;;;9.43;5.28;;;;;;;17.11;100.00;99313.00;4313748;33;20090;-75
2022/10/29 08:53:54;;;;;;;15.93;6.10;;;;;;;17.45;100.00;99303.94;4333406;32;20450;-74
2022/10/29 08:56:29;;;;;;;17.37;6.20;;;;;;;16.84;100.00;99273.47;4331006;33;20493;-74
2022/10/29 08:59:05;;;;;;;12.60;4.85;;;;;;;17.19;100.00;99306.94;4334491;32;20050;-74
2022/10/29 09:01:32;;;;;;;16.45;5.32;;;;;;;17.33;100.00;99277.94;4331416;33;20102;-73
2022/10/29 09:03:58;;;;;;;14.82;5.93;;;;;;;17.83;100.00;99312.25;4334492;33;20056;-75
2022/10/29 09:06:46;;;;;;;18.67;5.90;;;;;;;17.36;100.00;99292.87;4336354;33;20062;-74
2022/10/29 09:09:39;;;;;;;16.62;6.72;;;;;;;17.25;100.00;99303.88;4335051;33;20056;-74
2022/10/29 09:12:20;;;;;;;12.70;5.95;;;;;;;16.90;100.00;99272.38;4331747;33;20074;-74
2022/10/29 09:15:03;;;;;;;17.43;6.17;;;;;;;16.88;100.00;99318.91;4332441;33;20052;-76
2022/10/29 09:18:12;;;;;;;12.82;6.47;;;;;;;17.32;100.00;99322.56;4333471;33;20121;-73
2022/10/29 09:21:04;;;;;;;20.77;6.57;;;;;;;16.99;100.00;99300.59;4335264;33;20051;-74
2022/10/29 09:23:43;;;;;;;22.80;7.37;;;;;;;17.46;100.00;99330.87;4330130;33;20062;-73
2022/10/29 09:26:16;;;;;;;27.08;8.57;;;;;;;17.20;100.00;99346.63;4312836;33;20100;-74
2022/10/29 09:29:09;;;;;;;21.60;7.43;;;;;;;17.40;100.00;99343.72;4321472;33;20189;-74
2022/10/29 09:31:41;;;;;;;13.93;6.72;;;;;;;17.60;100.00;99341.91;4321525;33;20048;-73
2022/10/29 09:34:11;;;;;;;;;;;;;;;17.47;100.00;99364.34;4322510;33;20052;-73
2022/10/29 09:36:38;;;;;;;14.05;6.40;;;;;;;16.99;100.00;99359.59;4322766;33;19980;-74
2022/10/29 09:39:40;;;;;;;21.08;7.18;;;;;;;17.22;100.00;99306.38;4320089;33;20048;-74
2022/10/29 09:42:21;;;;;;;19.10;6.45;;;;;;;17.31;100.00;99340.03;4317639;33;20044;-74
2022/10/29 09:44:48;;;;;;;20.88;7.15;;;;;;;17.30;100.00;99365.59;4323591;33;20088;-73
2022/10/29 09:47:39;;;;;;;18.60;7.05;;;;;;;17.19;100.00;99347.75;4318641;33;20040;-74
2022/10/29 09:52:54;;;;;;;19.27;7.75;;;;;;;17.32;100.00;99336.19;4322184;33;20048;-73
2022/10/29 09:55:27;;;;;;;20.65;8.40;;;;;;;17.60;100.00;99347.34;4319815;33;20089;-75
2022/10/29 09:57:56;;;;;;;18.65;8.30;;;;;;;17.66;100.00;99308.06;4306548;33;20063;-72
2022/10/29 10:00:26;;;;;;;22.27;6.18;;;;;;;17.59;100.00;99307.59;4305850;33;20106;-73
2022/10/29 10:03:06;;;;;;;19.25;7.87;;;;;;;17.33;100.00;99343.25;4307565;33;20049;-73
2022/10/29 10:05:34;;;;;;;21.95;8.25;;;;;;;17.61;100.00;99310.84;4308222;33;20118;-73
2022/10/29 10:08:09;;;;;;;13.98;6.53;;;;;;;17.73;100.00;99321.34;4312477;33;20063;-72
2022/10/29 10:10:58;;;;;;;24.37;8.00;;;;;;;18.02;100.00;99337.63;4304647;33;20045;-74
2022/10/29 10:13:27;;;;;;;18.33;7.72;;;;;;;18.13;100.00;99338.31;4304757;33;20353;-73
2022/10/29 10:15:57;;;;;;;18.70;6.68;;;;;;;18.23;100.00;99326.47;4305609;33;20056;-72
2022/10/29 10:18:26;;;;;;;16.87;6.28;;;;;;;17.94;100.00;99327.38;4320236;33;20044;-72
2022/10/29 10:21:07;;;;;;;15.38;6.95;;;;;;;17.58;100.00;99300.53;4322727;33;20369;-74
2022/10/29 10:23:53;;;;;;;18.75;7.22;;;;;;;18.25;100.00;99337.87;4307208;33;20032;-73
2022/10/29 10:26:31;;;;;;;18.75;6.75;;;;;;;18.44;100.00;99343.34;4304053;33;20397;-75
2022/10/29 10:29:16;;;;;;;12.20;6.85;;;;;;;18.49;100.00;99314.13;4312202;33;20416;-73
2022/10/29 10:32:09;;;;;;;11.68;5.30;;;;;;;18.92;100.00;99331.50;4318197;33;20041;-77
2022/10/29 10:34:38;;;;;;;33.28;6.37;;;;;;;18.37;100.00;99294.66;4315961;33;20047;-73
2022/10/29 10:37:13;;;;;;;14.87;5.90;;;;;;;18.56;100.00;99329.31;4272561;33;20123;-73
2022/10/29 10:39:42;;;;;;;14.43;6.40;;;;;;;18.43;100.00;99331.66;4272035;33;20140;-73
2022/10/29 10:42:21;;;;;;;20.17;7.07;;;;;;;18.41;100.00;99317.50;4273413;33;20383;-73
2022/10/29 10:44:51;;;;;;;24.55;8.30;;;;;;;18.17;100.00;99336.63;4273066;33;20063;-73
2022/10/29 10:47:22;;;;;;;21.08;7.28;;;;;;;18.23;100.00;99329.19;4273366;33;20085;-73
2022/10/29 10:49:48;;;;;;;10.77;6.30;;;;;;;18.65;100.00;99320.16;4275751;33;20089;-75
2022/10/29 10:52:23;;;;;;;17.62;6.80;;;;;;;18.81;100.00;99342.53;4275869;33;20060;-73
2022/10/29 10:55:01;;;;;;;18.17;7.90;;;;;;;18.73;100.00;99315.13;4292196;33;20175;-74
2022/10/29 10:57:44;;;;;;;13.95;7.25;;;;;;;18.76;100.00;99328.97;4286533;33;20033;-73
2022/10/29 11:00:21;;;;;;;16.12;6.22;;;;;;;18.63;100.00;99324.28;4282769;33;20582;-73
2022/10/29 11:02:52;;;;;;;17.77;6.68;;;;;;;18.51;100.00;99317.34;4287778;33;20059;-72
2022/10/29 11:05:29;;;;;;;16.42;7.10;;;;;;;18.68;100.00;99332.38;4285976;33;20045;-73
2022/10/29 11:08:19;;;;;;;22.40;6.18;;;;;;;18.84;100.00;99325.63;4285000;33;20048;-73
2022/10/29 11:10:46;;;;;;;13.13;5.93;;;;;;;19.57;100.00;99315.03;4293819;33;20359;-75
2022/10/29 11:13:20;;;;;;;30.52;6.80;;;;;;;19.68;100.00;99320.31;4293917;33;20475;-74
2022/10/29 11:15:55;;;;;;;18.90;7.20;;;;;;;19.88;100.00;99330.87;4337390;33;20028;-74
2022/10/29 11:18:32;;;;;;;13.18;6.05;;;;;;;19.68;100.00;99284.81;4338665;33;20378;-75
2022/10/29 11:21:13;;;;;;;12.37;5.93;;;;;;;19.40;100.00;99323.00;4337583;33;20044;-75
2022/10/29 11:23:58;;;;;;;17.37;6.78;;;;;;;19.52;100.00;99323.34;4338629;33;20429;-76
2022/10/29 11:26:24;;;;;;;13.75;6.30;;;;;;;19.39;100.00;99315.94;4339433;33;20037;-75
2022/10/29 11:31:52;;;;;;;16.98;6.00;;;;;;;18.83;100.00;99285.75;4331330;33;20374;-77
2022/10/29 11:34:34;;;;;;;13.10;6.47;;;;;;;19.45;100.00;99331.13;4330768;33;20040;-77
2022/10/29 11:37:10;;;;;;;15.30;6.07;;;;;;;19.12;100.00;99298.41;4333444;33;20062;-79
2022/10/29 11:40:11;;;;;;;14.48;6.72;;;;;;;18.86;100.00;99311.69;4332282;33;20088;-74
2022/10/29 11:42:38;;;;;;;17.05;5.87;;;;;;;19.00;100.00;99323.44;4327357;33;20040;-74